Time;durP1;ratioP1;P1;durP2;ratioP2;P2;SDS_P1;SDS_P2;PMS_P1;PMS_P2;Temp;Humidity;BMP_temperature;BMP_pressure;BME280_temperature;BME280_humidity;BME280_pressure;Samples;Min_cycle;Max_cycle;Signal;HPM_P1;HPM_P2
2021/06/21 00:00:30;;;;;;;5.00;1.33;;;;;;;;;;5071887;28;20076;-68
2021/06/21 00:02:57;;;;;;;6.97;1.58;;;;;;;;;;5071876;28;20102;-68
2021/06/21 00:05:23;;;;;;;6.75;2.03;;;;;;;;;;5076101;28;20097;-68
2021/06/21 00:07:51;;;;;;;9.50;1.60;;;;;;;;;;5092135;28;20062;-69
2021/06/21 00:10:17;;;;;;;6.35;1.70;;;;;;;;;;5092314;28;20076;-68
2021/06/21 00:12:45;;;;;;;9.60;1.52;;;;;;;;;;5092038;28;20087;-68
2021/06/21 00:15:19;;;;;;;6.78;1.35;;;;;;;;;;5092172;28;20118;-68
2021/06/21 00:17:47;;;;;;;8.27;2.05;;;;;;;;;;5077339;28;20059;-68
2021/06/21 00:20:15;;;;;;;9.73;1.55;;;;;;;;;;5072033;28;20562;-68
2021/06/21 00:22:42;;;;;;;6.72;1.40;;;;;;;;;;5071537;28;20514;-68
2021/06/21 00:25:10;;;;;;;6.85;1.70;;;;;;;;;;5071722;28;20080;-68
2021/06/21 00:27:37;;;;;;;7.43;1.88;;;;;;;;;;5071583;28;20080;-67
2021/06/21 00:30:04;;;;;;;6.95;1.98;;;;;;;;;;5071780;28;20083;-68
2021/06/21 00:32:31;;;;;;;9.07;2.55;;;;;;;;;;5071562;28;20084;-68
2021/06/21 00:34:58;;;;;;;5.38;2.00;;;;;;;;;;5071438;28;20052;-68
2021/06/21 00:37:24;;;;;;;8.30;1.92;;;;;;;;;;5071686;28;20084;-68
2021/06/21 00:39:51;;;;;;;6.25;1.60;;;;;;;;;;5071529;28;20505;-67
2021/06/21 00:42:17;;;;;;;8.07;2.10;;;;;;;;;;5070225;28;20048;-68
2021/06/21 00:44:46;;;;;;;11.10;2.08;;;;;;;;;;5071318;28;20140;-68
2021/06/21 00:47:13;;;;;;;9.38;2.38;;;;;;;;;;5071645;28;20484;-68
2021/06/21 00:49:41;;;;;;;9.10;2.20;;;;;;;;;;5071505;28;20071;-68
2021/06/21 00:52:11;;;;;;;9.57;2.53;;;;;;;;;;5073021;28;20048;-68
2021/06/21 00:54:38;;;;;;;7.40;1.88;;;;;;;;;;5075545;28;20090;-68
2021/06/21 00:57:05;;;;;;;6.65;2.00;;;;;;;;;;5074486;28;20476;-68
2021/06/21 00:59:31;;;;;;;10.43;1.95;;;;;;;;;;5075626;28;20056;-68
2021/06/21 01:01:58;;;;;;;10.02;2.17;;;;;;;;;;5075446;28;20087;-68
2021/06/21 01:04:24;;;;;;;10.13;2.35;;;;;;;;;;5075415;28;20072;-68
2021/06/21 01:06:51;;;;;;;10.32;2.72;;;;;;;;;;5075322;28;20048;-68
2021/06/21 01:09:23;;;;;;;9.95;1.73;;;;;;;;;;5075438;28;20095;-68
2021/06/21 01:12:00;;;;;;;10.20;2.20;;;;;;;;;;5074032;28;20083;-67
2021/06/21 01:14:32;;;;;;;8.15;1.90;;;;;;;;;;5057857;28;20091;-68
2021/06/21 01:17:15;;;;;;;7.13;1.98;;;;;;;;;;5058020;28;20121;-68
2021/06/21 01:19:51;;;;;;;10.90;2.75;;;;;;;;;;5074071;28;20079;-68
2021/06/21 01:22:52;;;;;;;7.43;2.55;;;;;;;;;;5075066;28;20048;-67
2021/06/21 01:25:42;;;;;;;7.63;2.47;;;;;;;;;;5075054;28;20080;-68
2021/06/21 01:28:47;;;;;;;8.63;1.67;;;;;;;;;;5060512;28;20056;-68
2021/06/21 01:31:19;;;;;;;7.72;1.90;;;;;;;;;;5073878;28;20072;-67
2021/06/21 01:33:47;;;;;;;14.00;2.35;;;;;;;;;;5060289;28;20084;-68
2021/06/21 01:36:16;;;;;;;11.93;3.47;;;;;;;;;;5055003;28;20090;-68
2021/06/21 01:38:46;;;;;;;6.82;2.10;;;;;;;;;;5053902;28;20076;-67
2021/06/21 01:41:38;;;;;;;12.38;2.47;;;;;;;;;;5053614;28;20049;-66
2021/06/21 01:44:05;;;;;;;7.25;2.03;;;;;;;;;;5053769;28;20049;-67
2021/06/21 01:46:34;;;;;;;7.53;2.75;;;;;;;;;;5036980;28;20091;-67
2021/06/21 01:49:22;;;;;;;13.23;3.00;;;;;;;;;;5065548;28;20044;-66
2021/06/21 01:51:50;;;;;;;10.32;2.90;;;;;;;;;;5074269;28;20094;-66
2021/06/21 01:54:16;;;;;;;11.40;2.42;;;;;;;;;;5058822;28;20096;-66
2021/06/21 01:56:46;;;;;;;11.13;2.10;;;;;;;;;;5071901;28;20186;-66
2021/06/21 01:59:14;;;;;;;17.00;3.35;;;;;;;;;;5063752;28;20045;-66
2021/06/21 02:01:43;;;;;;;8.73;1.90;;;;;;;;;;5052965;28;20057;-66
2021/06/21 02:04:14;;;;;;;8.35;2.30;;;;;;;;;;5070953;28;20041;-67
2021/06/21 02:06:40;;;;;;;21.75;2.83;;;;;;;;;;5073063;28;20087;-67
2021/06/21 02:09:07;;;;;;;14.10;2.78;;;;;;;;;;5056631;28;20076;-66
2021/06/21 02:11:34;;;;;;;12.60;2.53;;;;;;;;;;5072893;28;20053;-68
2021/06/21 02:14:02;;;;;;;8.88;2.13;;;;;;;;;;5074098;28;20109;-66
2021/06/21 02:16:28;;;;;;;10.00;2.88;;;;;;;;;;5072916;28;20052;-66
2021/06/21 02:18:55;;;;;;;8.38;2.35;;;;;;;;;;5072940;28;20123;-66
2021/06/21 02:21:22;;;;;;;15.68;2.88;;;;;;;;;;5074399;28;20076;-66
2021/06/21 02:23:49;;;;;;;10.27;2.33;;;;;;;;;;5073932;28;20088;-67
2021/06/21 02:26:19;;;;;;;12.13;2.15;;;;;;;;;;5072757;28;20072;-66
2021/06/21 02:28:45;;;;;;;12.45;2.67;;;;;;;;;;5056709;28;20087;-67
2021/06/21 02:31:12;;;;;;;17.52;3.70;;;;;;;;;;5092934;28;20052;-67
2021/06/21 02:33:39;;;;;;;9.82;2.38;;;;;;;;;;5075851;28;20499;-67
2021/06/21 02:36:09;;;;;;;11.45;2.47;;;;;;;;;;5082678;28;20044;-68
2021/06/21 02:38:35;;;;;;;12.70;2.47;;;;;;;;;;5073485;28;20515;-67
2021/06/21 02:41:02;;;;;;;7.60;2.38;;;;;;;;;;5073778;28;20052;-66
2021/06/21 02:43:30;;;;;;;9.30;2.72;;;;;;;;;;5073705;28;20162;-67
2021/06/21 02:45:56;;;;;;;10.82;2.97;;;;;;;;;;5088912;28;20083;-66
2021/06/21 02:48:23;;;;;;;9.85;2.70;;;;;;;;;;5093774;28;20429;-68
2021/06/21 02:50:49;;;;;;;9.23;2.40;;;;;;;;;;5093644;28;20094;-66
2021/06/21 02:53:40;;;;;;;13.30;2.60;;;;;;;;;;5092520;28;20080;-67
2021/06/21 02:56:22;;;;;;;10.95;2.58;;;;;;;;;;5093861;28;20101;-66
2021/06/21 02:58:48;;;;;;;8.18;2.13;;;;;;;;;;5088125;28;20084;-66
2021/06/21 03:01:15;;;;;;;11.93;2.50;;;;;;;;;;5072148;28;20095;-66
2021/06/21 03:03:47;;;;;;;8.52;2.55;;;;;;;;;;5071820;28;20044;-66
2021/06/21 03:06:17;;;;;;;13.52;2.35;;;;;;;;;;5072042;28;20079;-67
2021/06/21 03:08:44;;;;;;;10.20;2.15;;;;;;;;;;5055836;28;20076;-66
2021/06/21 03:11:14;;;;;;;13.45;2.50;;;;;;;;;;5071902;28;20507;-66
2021/06/21 03:13:40;;;;;;;8.50;1.80;;;;;;;;;;5055168;28;20088;-66
2021/06/21 03:16:07;;;;;;;8.68;3.35;;;;;;;;;;5071517;28;20095;-67
2021/06/21 03:18:34;;;;;;;8.18;2.78;;;;;;;;;;5071599;28;20083;-68
2021/06/21 03:21:00;;;;;;;11.00;2.30;;;;;;;;;;5071747;28;20074;-68
2021/06/21 03:23:31;;;;;;;11.23;3.35;;;;;;;;;;5072748;28;20076;-68
2021/06/21 03:26:00;;;;;;;6.57;2.75;;;;;;;;;;5072635;28;20131;-68
2021/06/21 03:28:27;;;;;;;5.22;2.00;;;;;;;;;;5072713;28;20098;-68
2021/06/21 03:31:03;;;;;;;9.07;2.15;;;;;;;;;;5072617;28;20044;-69
2021/06/21 03:33:31;;;;;;;9.85;1.80;;;;;;;;;;5072510;28;20421;-68
2021/06/21 03:35:58;;;;;;;8.80;2.00;;;;;;;;;;5072758;28;20052;-68
2021/06/21 03:38:26;;;;;;;14.07;1.90;;;;;;;;;;5072363;28;20091;-68
2021/06/21 03:40:56;;;;;;;8.23;2.28;;;;;;;;;;5077771;28;20466;-68
2021/06/21 03:43:24;;;;;;;6.07;2.30;;;;;;;;;;5091371;28;20142;-68
2021/06/21 03:45:52;;;;;;;8.43;2.05;;;;;;;;;;5092696;28;20044;-67
2021/06/21 03:48:19;;;;;;;8.60;2.10;;;;;;;;;;5092851;28;20464;-67
2021/06/21 03:50:46;;;;;;;10.95;3.70;;;;;;;;;;5092537;28;20048;-67
2021/06/21 03:53:14;;;;;;;7.75;2.90;;;;;;;;;;5092268;28;20471;-67
2021/06/21 03:55:41;;;;;;;6.63;2.30;;;;;;;;;;5090635;28;20086;-67
2021/06/21 03:58:07;;;;;;;6.32;1.95;;;;;;;;;;5092326;28;20097;-66
2021/06/21 04:00:35;;;;;;;10.50;2.45;;;;;;;;;;5092707;28;20078;-67
2021/06/21 04:03:02;;;;;;;10.35;1.95;;;;;;;;;;5091181;28;20086;-67
2021/06/21 04:05:29;;;;;;;8.00;1.70;;;;;;;;;;5092327;28;20040;-68
2021/06/21 04:07:56;;;;;;;6.68;1.98;;;;;;;;;;5091988;28;20080;-67
2021/06/21 04:10:24;;;;;;;10.52;2.75;;;;;;;;;;5080565;28;20519;-67
2021/06/21 04:12:51;;;;;;;8.50;2.45;;;;;;;;;;5070529;28;20419;-70
2021/06/21 04:15:21;;;;;;;7.95;1.88;;;;;;;;;;5071807;28;20566;-67
2021/06/21 04:17:48;;;;;;;10.48;3.75;;;;;;;;;;5071782;28;20055;-67
2021/06/21 04:20:17;;;;;;;9.20;2.03;;;;;;;;;;5072130;28;20092;-67
2021/06/21 04:22:44;;;;;;;7.80;2.35;;;;;;;;;;5071602;28;20052;-67
2021/06/21 04:25:13;;;;;;;8.30;2.83;;;;;;;;;;5071764;28;20083;-67
2021/06/21 04:27:40;;;;;;;9.05;1.95;;;;;;;;;;5070479;28;20102;-67
2021/06/21 04:30:10;;;;;;;13.00;2.80;;;;;;;;;;5071857;28;20140;-67
2021/06/21 04:32:37;;;;;;;15.82;2.08;;;;;;;;;;5071555;28;20151;-67
2021/06/21 04:35:06;;;;;;;7.30;2.25;;;;;;;;;;5070508;28;20048;-67
2021/06/21 04:37:33;;;;;;;9.65;2.13;;;;;;;;;;5071463;28;20209;-67
2021/06/21 04:40:02;;;;;;;10.07;2.10;;;;;;;;;;5071515;28;20135;-67
2021/06/21 04:42:29;;;;;;;9.65;2.17;;;;;;;;;;5071456;28;20088;-67
2021/06/21 04:44:56;;;;;;;8.23;2.53;;;;;;;;;;5070381;28;20464;-69
2021/06/21 04:47:24;;;;;;;7.63;1.90;;;;;;;;;;5071579;28;20045;-67
2021/06/21 04:49:54;;;;;;;8.20;2.03;;;;;;;;;;5071536;28;20475;-67
2021/06/21 04:52:23;;;;;;;9.18;1.75;;;;;;;;;;5071384;28;20091;-67
2021/06/21 04:54:50;;;;;;;8.00;2.15;;;;;;;;;;5071285;28;20083;-68
2021/06/21 04:57:17;;;;;;;13.48;2.72;;;;;;;;;;5070298;28;20084;-67
2021/06/21 04:59:44;;;;;;;7.97;2.35;;;;;;;;;;5071927;28;20091;-67
2021/06/21 05:02:11;;;;;;;5.38;1.95;;;;;;;;;;5077877;28;20091;-67
2021/06/21 05:04:37;;;;;;;9.43;2.15;;;;;;;;;;5071220;28;20091;-67
2021/06/21 05:07:04;;;;;;;8.85;2.00;;;;;;;;;;5071275;28;20479;-67
2021/06/21 05:09:30;;;;;;;9.13;2.22;;;;;;;;;;5071325;28;20056;-67
2021/06/21 05:11:57;;;;;;;6.60;1.55;;;;;;;;;;5071130;28;20092;-68
2021/06/21 05:14:28;;;;;;;8.32;1.58;;;;;;;;;;5071314;28;20059;-69
2021/06/21 05:16:55;;;;;;;7.28;1.85;;;;;;;;;;5071104;28;20083;-68
2021/06/21 05:19:22;;;;;;;8.07;1.85;;;;;;;;;;5071395;28;20140;-67
2021/06/21 05:21:48;;;;;;;8.68;2.28;;;;;;;;;;5071065;28;20076;-68
2021/06/21 05:24:15;;;;;;;12.45;2.25;;;;;;;;;;5071151;28;20063;-67
2021/06/21 05:26:41;;;;;;;6.53;2.20;;;;;;;;;;5070974;28;20080;-67
2021/06/21 05:29:08;;;;;;;10.55;2.38;;;;;;;;;;5071371;28;20166;-67
2021/06/21 05:31:36;;;;;;;8.02;2.22;;;;;;;;;;5071132;28;20372;-67
2021/06/21 05:34:03;;;;;;;10.60;2.60;;;;;;;;;;5071302;28;20052;-67
2021/06/21 05:36:29;;;;;;;11.48;2.72;;;;;;;;;;5070992;28;20091;-67
2021/06/21 05:38:56;;;;;;;6.93;1.75;;;;;;;;;;5073890;28;20083;-67
2021/06/21 05:41:23;;;;;;;8.65;2.00;;;;;;;;;;5075238;28;20080;-69
2021/06/21 05:43:50;;;;;;;8.93;1.75;;;;;;;;;;5074483;28;20044;-68
2021/06/21 05:46:16;;;;;;;7.07;2.30;;;;;;;;;;5074752;28;20537;-67
2021/06/21 05:48:43;;;;;;;5.90;2.25;;;;;;;;;;5073464;28;20090;-67
2021/06/21 05:51:09;;;;;;;5.93;1.60;;;;;;;;;;5074587;28;20091;-68
2021/06/21 05:53:36;;;;;;;5.60;1.67;;;;;;;;;;5074377;28;20159;-66
2021/06/21 05:56:03;;;;;;;9.75;1.60;;;;;;;;;;5074704;28;20105;-66
2021/06/21 05:58:29;;;;;;;8.15;1.40;;;;;;;;;;5074532;28;20088;-66
2021/06/21 06:00:56;;;;;;;10.00;2.00;;;;;;;;;;5078712;28;20105;-66
2021/06/21 06:03:22;;;;;;;10.43;1.77;;;;;;;;;;5081062;28;20515;-67
2021/06/21 06:05:50;;;;;;;9.35;1.73;;;;;;;;;;5090743;28;20097;-66
2021/06/21 06:08:17;;;;;;;6.63;1.60;;;;;;;;;;5092720;28;20465;-66
2021/06/21 06:10:44;;;;;;;14.45;2.85;;;;;;;;;;5092450;28;20083;-67
2021/06/21 06:13:10;;;;;;;6.13;1.48;;;;;;;;;;5092336;28;20083;-67
2021/06/21 06:15:37;;;;;;;9.85;1.50;;;;;;;;;;5084385;28;20087;-66
2021/06/21 06:18:04;;;;;;;5.10;1.27;;;;;;;;;;5071931;28;20059;-66
2021/06/21 06:20:31;;;;;;;8.05;1.50;;;;;;;;;;5071636;28;20076;-67
2021/06/21 06:22:58;;;;;;;13.68;3.15;;;;;;;;;;5071813;28;20135;-66
2021/06/21 06:25:25;;;;;;;7.35;1.73;;;;;;;;;;5071926;28;20109;-67
2021/06/21 06:27:53;;;;;;;6.97;2.40;;;;;;;;;;5071870;28;20495;-66
2021/06/21 06:30:20;;;;;;;12.70;2.30;;;;;;;;;;5072350;28;20072;-66
2021/06/21 06:32:47;;;;;;;5.18;1.98;;;;;;;;;;5071151;28;20190;-67
2021/06/21 06:35:14;;;;;;;8.00;1.80;;;;;;;;;;5071625;28;20091;-66
2021/06/21 06:37:41;;;;;;;4.07;1.42;;;;;;;;;;5071548;28;20075;-67
2021/06/21 06:40:08;;;;;;;5.85;1.50;;;;;;;;;;5071699;28;20083;-66
2021/06/21 06:42:34;;;;;;;6.25;1.58;;;;;;;;;;5071535;28;20084;-66
2021/06/21 06:45:01;;;;;;;8.27;1.95;;;;;;;;;;5071143;28;20055;-66
2021/06/21 06:47:29;;;;;;;7.57;1.30;;;;;;;;;;5071379;28;20048;-66
2021/06/21 06:49:55;;;;;;;7.05;1.50;;;;;;;;;;5070212;28;20052;-65
2021/06/21 06:52:23;;;;;;;7.40;1.60;;;;;;;;;;5071311;28;20135;-66
2021/06/21 06:57:37;;;;;;;4.63;1.92;;;;;;;;;;5071517;28;20044;-67
2021/06/21 07:00:09;;;;;;;6.07;1.70;;;;;;;;;;5087869;28;20075;-68
2021/06/21 07:02:36;;;;;;;10.43;1.92;;;;;;;;;;5091698;28;20071;-68
2021/06/21 07:05:03;;;;;;;5.30;1.45;;;;;;;;;;5091670;28;20105;-68
2021/06/21 07:07:30;;;;;;;7.95;1.75;;;;;;;;;;5091804;28;20056;-66
2021/06/21 07:09:57;;;;;;;8.25;1.50;;;;;;;;;;5091306;28;20512;-67
2021/06/21 07:12:24;;;;;;;5.25;1.83;;;;;;;;;;5089837;28;20428;-68
2021/06/21 07:14:50;;;;;;;3.85;1.55;;;;;;;;;;5080044;28;20052;-69
2021/06/21 07:17:17;;;;;;;9.15;1.83;;;;;;;;;;5057007;28;20091;-68
2021/06/21 07:19:43;;;;;;;13.15;1.85;;;;;;;;;;5065080;28;20076;-70
2021/06/21 07:22:10;;;;;;;11.25;1.98;;;;;;;;;;5067426;28;20057;-69
2021/06/21 07:24:37;;;;;;;3.00;1.17;;;;;;;;;;5058106;28;20459;-68
2021/06/21 07:27:08;;;;;;;4.83;1.30;;;;;;;;;;5061808;28;20044;-69
2021/06/21 07:29:35;;;;;;;6.57;1.75;;;;;;;;;;5063481;28;20071;-69
2021/06/21 07:32:02;;;;;;;7.10;1.60;;;;;;;;;;5065350;28;20127;-67
2021/06/21 07:34:29;;;;;;;9.20;1.40;;;;;;;;;;5058465;28;20056;-68
2021/06/21 07:36:55;;;;;;;6.00;1.45;;;;;;;;;;5058098;28;20084;-67
2021/06/21 07:39:22;;;;;;;4.88;1.40;;;;;;;;;;5086671;22;141010;-67
2021/06/21 07:41:48;;;;;;;4.80;0.88;;;;;;;;;;5071030;28;20082;-66
2021/06/21 07:44:15;;;;;;;2.30;1.10;;;;;;;;;;5071230;28;20464;-66
2021/06/21 07:46:42;;;;;;;4.28;1.70;;;;;;;;;;5070778;28;20399;-67
2021/06/21 07:49:09;;;;;;;5.53;1.98;;;;;;;;;;5071033;28;20055;-66
2021/06/21 07:51:36;;;;;;;5.18;1.70;;;;;;;;;;5071151;28;20041;-66
2021/06/21 07:54:02;;;;;;;10.75;1.65;;;;;;;;;;5071015;28;20083;-67
2021/06/21 07:56:29;;;;;;;11.75;1.95;;;;;;;;;;5071388;28;20072;-67
2021/06/21 07:58:55;;;;;;;11.70;1.48;;;;;;;;;;5070834;28;20079;-66
2021/06/21 08:01:23;;;;;;;7.00;1.10;;;;;;;;;;5069891;28;20120;-66
2021/06/21 08:03:49;;;;;;;5.45;1.13;;;;;;;;;;5070517;28;20048;-67
2021/06/21 08:06:16;;;;;;;3.28;1.15;;;;;;;;;;5071247;28;20040;-66
2021/06/21 08:08:43;;;;;;;5.85;1.48;;;;;;;;;;5070466;28;20076;-67
2021/06/21 08:11:11;;;;;;;7.80;1.35;;;;;;;;;;5068763;28;20552;-66
2021/06/21 08:13:37;;;;;;;7.05;1.58;;;;;;;;;;5070453;28;20105;-66
2021/06/21 08:16:04;;;;;;;7.47;1.00;;;;;;;;;;5070963;28;20537;-66
2021/06/21 08:18:31;;;;;;;5.72;1.23;;;;;;;;;;5070594;28;20052;-66
2021/06/21 08:20:58;;;;;;;7.00;2.33;;;;;;;;;;5070835;28;20087;-66
2021/06/21 08:23:25;;;;;;;5.05;1.42;;;;;;;;;;5070428;28;20044;-67
2021/06/21 08:25:52;;;;;;;3.30;1.20;;;;;;;;;;5070526;28;20044;-66
2021/06/21 08:28:18;;;;;;;5.75;1.88;;;;;;;;;;5070598;28;20133;-66
2021/06/21 08:30:47;;;;;;;4.07;1.10;;;;;;;;;;5070398;28;20114;-66
2021/06/21 08:33:15;;;;;;;4.03;1.10;;;;;;;;;;5070135;28;20328;-66
2021/06/21 08:35:42;;;;;;;2.75;1.02;;;;;;;;;;5070298;28;20106;-65
2021/06/21 08:38:08;;;;;;;7.10;1.48;;;;;;;;;;5070257;28;20135;-68
2021/06/21 08:40:35;;;;;;;5.90;1.27;;;;;;;;;;5070345;28;20074;-65
2021/06/21 08:43:02;;;;;;;3.67;0.90;;;;;;;;;;5070372;28;20511;-66
2021/06/21 08:45:31;;;;;;;3.58;1.55;;;;;;;;;;5069224;28;20087;-66
2021/06/21 08:47:58;;;;;;;4.50;1.23;;;;;;;;;;5063904;28;20129;-65
2021/06/21 08:50:25;;;;;;;6.85;1.40;;;;;;;;;;5069185;28;20056;-69
2021/06/21 08:52:52;;;;;;;7.13;1.60;;;;;;;;;;5070387;28;20083;-68
2021/06/21 08:55:19;;;;;;;5.72;1.20;;;;;;;;;;5067411;28;20495;-70
2021/06/21 08:57:48;;;;;;;3.22;1.02;;;;;;;;;;5070526;28;20436;-66
2021/06/21 09:00:17;;;;;;;4.25;1.33;;;;;;;;;;5070196;28;20109;-67
2021/06/21 09:02:48;;;;;;;3.55;1.80;;;;;;;;;;5066863;28;20190;-68
2021/06/21 09:05:16;;;;;;;3.22;1.30;;;;;;;;;;5069750;28;20094;-69
2021/06/21 09:07:43;;;;;;;3.28;1.00;;;;;;;;;;5070107;28;20045;-67
2021/06/21 09:10:25;;;;;;;5.90;1.45;;;;;;;;;;5067937;28;20075;-67
2021/06/21 09:13:01;;;;;;;6.35;1.17;;;;;;;;;;5070748;28;20040;-67
2021/06/21 09:15:51;;;;;;;1.92;0.90;;;;;;;;;;5073865;28;20056;-66
2021/06/21 09:18:28;;;;;;;3.17;1.00;;;;;;;;;;5068528;28;20144;-68
2021/06/21 09:21:22;;;;;;;2.47;0.93;;;;;;;;;;5073951;28;20498;-66
2021/06/21 09:24:21;;;;;;;3.15;1.00;;;;;;;;;;5071099;28;20076;-67
2021/06/21 09:26:49;;;;;;;3.13;0.90;;;;;;;;;;5073261;28;20095;-68
2021/06/21 09:29:16;;;;;;;2.00;0.90;;;;;;;;;;5073520;28;20131;-64
2021/06/21 09:31:54;;;;;;;2.30;0.80;;;;;;;;;;5068556;28;20048;-64
2021/06/21 09:34:23;;;;;;;6.15;1.17;;;;;;;;;;5072120;28;20101;-63
2021/06/21 09:36:51;;;;;;;4.22;1.33;;;;;;;;;;5073471;28;20076;-62
2021/06/21 09:39:26;;;;;;;7.75;1.13;;;;;;;;;;5073539;28;20055;-63
2021/06/21 09:42:13;;;;;;;6.60;1.35;;;;;;;;;;5072050;28;20083;-62
2021/06/21 09:44:51;;;;;;;2.38;0.80;;;;;;;;;;5073183;28;20074;-69
2021/06/21 09:47:31;;;;;;;4.22;1.48;;;;;;;;;;5070807;28;20045;-69
2021/06/21 09:50:13;;;;;;;4.63;1.13;;;;;;;;;;5072878;28;20052;-70
2021/06/21 09:53:02;;;;;;;2.05;0.90;;;;;;;;;;5072958;28;20048;-69
2021/06/21 09:55:38;;;;;;;5.20;2.17;;;;;;;;;;5072595;28;20074;-63
2021/06/21 09:58:12;;;;;;;5.43;1.27;;;;;;;;;;5072868;28;20080;-64
2021/06/21 10:00:50;;;;;;;5.00;1.00;;;;;;;;;;5073019;28;20053;-65
2021/06/21 10:03:19;;;;;;;5.25;1.48;;;;;;;;;;5072886;28;20049;-64
2021/06/21 10:06:07;;;;;;;2.95;1.00;;;;;;;;;;5072686;28;20052;-64
2021/06/21 10:08:41;;;;;;;3.83;1.35;;;;;;;;;;5065177;28;20122;-65
2021/06/21 10:11:30;;;;;;;3.95;1.10;;;;;;;;;;5071759;28;20044;-66
2021/06/21 10:14:10;;;;;;;5.60;1.73;;;;;;;;;;5072803;28;20048;-65
2021/06/21 10:16:37;;;;;;;2.00;0.85;;;;;;;;;;5072497;28;20044;-64
2021/06/21 10:19:05;;;;;;;5.13;1.30;;;;;;;;;;5072631;28;20045;-65
2021/06/21 10:21:32;;;;;;;4.55;1.25;;;;;;;;;;5072300;28;20086;-65
2021/06/21 10:23:59;;;;;;;2.38;1.05;;;;;;;;;;5071896;28;20052;-65
2021/06/21 10:26:26;;;;;;;2.70;1.20;;;;;;;;;;5071747;28;20080;-64
2021/06/21 10:28:53;;;;;;;3.92;1.23;;;;;;;;;;5072042;28;20491;-65
2021/06/21 10:31:25;;;;;;;2.33;0.90;;;;;;;;;;5070645;28;20090;-64
2021/06/21 10:33:58;;;;;;;7.55;1.23;;;;;;;;;;5070722;28;20059;-64
2021/06/21 10:36:51;;;;;;;3.30;1.00;;;;;;;;;;5057746;28;20149;-69
2021/06/21 10:39:19;;;;;;;;;;;;;;;;;;5072477;28;20072;-70
2021/06/21 10:42:16;;;;;;;2.72;1.10;;;;;;;;;;5072240;28;19924;-70
2021/06/21 10:44:58;;;;;;;1.30;1.02;;;;;;;;;;5071820;28;20052;-63
2021/06/21 10:47:25;;;;;;;3.63;1.05;;;;;;;;;;5072079;28;20136;-63
2021/06/21 10:50:16;;;;;;;3.97;1.02;;;;;;;;;;5071672;28;20467;-64
2021/06/21 10:52:50;;;;;;;3.90;1.80;;;;;;;;;;5070301;28;20044;-64
2021/06/21 10:58:08;;;;;;;3.38;1.60;;;;;;;;;;5068687;28;20500;-71
2021/06/21 11:00:39;;;;;;;4.22;1.83;;;;;;;;;;5071217;28;20079;-68
2021/06/21 11:03:37;;;;;;;3.55;1.40;;;;;;;;;;5068495;28;20059;-68
2021/06/21 11:06:06;;;;;;;5.68;1.50;;;;;;;;;;5072539;28;20164;-65
2021/06/21 11:08:45;;;;;;;4.85;1.60;;;;;;;;;;5071524;28;20468;-67
2021/06/21 11:11:34;;;;;;;5.65;1.50;;;;;;;;;;5071280;28;20125;-70
2021/06/21 11:14:18;;;;;;;2.90;1.20;;;;;;;;;;5070097;28;20495;-67
2021/06/21 11:16:47;;;;;;;2.63;1.10;;;;;;;;;;5071268;28;20059;-68
2021/06/21 11:19:13;;;;;;;2.20;1.20;;;;;;;;;;5070427;28;20048;-66
2021/06/21 11:21:46;;;;;;;3.63;1.38;;;;;;;;;;5067984;28;20094;-66
2021/06/21 11:24:35;;;;;;;4.57;1.13;;;;;;;;;;5071717;28;20091;-67
2021/06/21 11:27:04;;;;;;;4.00;1.65;;;;;;;;;;5069681;28;20084;-66
2021/06/21 11:29:34;;;;;;;2.90;1.40;;;;;;;;;;5070959;28;20495;-67
2021/06/21 11:32:03;;;;;;;4.32;1.20;;;;;;;;;;5071307;28;20068;-69
2021/06/21 11:34:56;;;;;;;4.95;1.00;;;;;;;;;;5071426;28;20048;-68
2021/06/21 11:37:37;;;;;;;5.50;1.80;;;;;;;;;;5070847;28;20072;-71
2021/06/21 11:40:15;;;;;;;3.55;1.38;;;;;;;;;;5070050;28;20118;-68
2021/06/21 11:42:57;;;;;;;2.92;1.52;;;;;;;;;;5070958;28;20052;-68
2021/06/21 11:45:51;;;;;;;4.70;1.45;;;;;;;;;;5069714;28;20091;-69
2021/06/21 11:48:32;;;;;;;6.57;1.30;;;;;;;;;;5069536;28;20146;-70
2021/06/21 11:51:01;;;;;;;3.72;1.27;;;;;;;;;;5067353;28;20491;-67
2021/06/21 11:53:29;;;;;;;3.38;1.52;;;;;;;;;;5070448;28;20079;-67
2021/06/21 11:55:58;;;;;;;3.88;1.20;;;;;;;;;;5070837;28;20498;-69
2021/06/21 11:58:34;;;;;;;6.68;1.30;;;;;;;;;;5070942;28;20097;-66
2021/06/21 12:01:01;;;;;;;7.15;1.48;;;;;;;;;;5070706;28;20147;-66
2021/06/21 12:03:33;;;;;;;6.63;1.10;;;;;;;;;;5068716;28;20062;-67
2021/06/21 12:06:00;;;;;;;5.60;0.98;;;;;;;;;;5070536;28;20044;-66
2021/06/21 12:08:27;;;;;;;3.50;1.20;;;;;;;;;;5070519;28;20396;-67
2021/06/21 12:10:54;;;;;;;2.35;0.85;;;;;;;;;;5052930;28;20077;-66
2021/06/21 12:13:21;;;;;;;8.00;1.23;;;;;;;;;;5070100;28;20471;-68
2021/06/21 12:15:48;;;;;;;4.18;1.65;;;;;;;;;;5070687;28;20075;-67
2021/06/21 12:18:23;;;;;;;4.25;1.25;;;;;;;;;;5070548;28;20423;-68
2021/06/21 12:20:50;;;;;;;1.80;1.23;;;;;;;;;;5070860;28;20557;-68
2021/06/21 12:23:17;;;;;;;3.22;1.60;;;;;;;;;;5071976;28;20052;-66
2021/06/21 12:25:45;;;;;;;5.32;1.40;;;;;;;;;;5070628;28;20072;-69
2021/06/21 12:28:20;;;;;;;5.13;1.20;;;;;;;;;;5070385;28;20627;-68
2021/06/21 12:30:47;;;;;;;3.38;1.15;;;;;;;;;;5070115;28;20059;-68
2021/06/21 12:33:29;;;;;;;4.25;1.38;;;;;;;;;;5068460;28;20076;-70
2021/06/21 12:36:06;;;;;;;3.40;1.08;;;;;;;;;;5069867;28;20084;-70
2021/06/21 12:38:34;;;;;;;3.97;1.20;;;;;;;;;;5069782;28;20507;-70
2021/06/21 12:41:31;;;;;;;4.90;1.70;;;;;;;;;;5065800;28;20071;-64
2021/06/21 12:44:00;;;;;;;4.15;1.45;;;;;;;;;;5056314;28;20079;-63
2021/06/21 12:46:35;;;;;;;4.93;1.45;;;;;;;;;;5070322;28;20491;-64
2021/06/21 12:49:07;;;;;;;3.13;1.40;;;;;;;;;;5066184;28;20068;-64
2021/06/21 12:51:34;;;;;;;;;;;;;;;;;;5069288;28;20053;-64
2021/06/21 12:54:00;;;;;;;6.28;1.27;;;;;;;;;;5069014;28;20001;-64
2021/06/21 12:56:30;;;;;;;3.47;1.30;;;;;;;;;;5065274;28;20396;-64
2021/06/21 12:58:57;;;;;;;2.72;1.42;;;;;;;;;;5067813;28;20076;-64
2021/06/21 13:01:33;;;;;;;2.85;1.23;;;;;;;;;;5070104;28;20056;-64
2021/06/21 13:04:01;;;;;;;;;;;;;;;;;;5070285;28;20045;-65
2021/06/21 13:06:36;;;;;;;2.22;0.95;;;;;;;;;;5061838;28;19924;-64
2021/06/21 13:09:05;;;;;;;1.98;1.00;;;;;;;;;;5067352;28;20125;-62
2021/06/21 13:11:46;;;;;;;2.85;1.48;;;;;;;;;;5067409;28;20052;-64
2021/06/21 13:14:13;;;;;;;2.87;0.90;;;;;;;;;;5067399;28;20090;-63
2021/06/21 13:16:40;;;;;;;2.28;1.13;;;;;;;;;;5069537;28;20049;-63
2021/06/21 13:19:15;;;;;;;5.10;1.00;;;;;;;;;;5067942;28;20049;-64
2021/06/21 13:21:43;;;;;;;2.92;1.13;;;;;;;;;;5066933;28;20048;-64
2021/06/21 13:24:11;;;;;;;1.02;0.88;;;;;;;;;;5068369;28;20530;-64
2021/06/21 13:26:41;;;;;;;1.92;1.00;;;;;;;;;;5068905;28;20044;-64
2021/06/21 13:29:29;;;;;;;3.45;0.88;;;;;;;;;;5068584;28;20123;-63
2021/06/21 13:32:00;;;;;;;5.18;1.33;;;;;;;;;;5068668;28;20126;-63
2021/06/21 13:34:39;;;;;;;2.63;1.30;;;;;;;;;;5065495;28;20052;-64
2021/06/21 13:37:06;;;;;;;1.27;0.90;;;;;;;;;;5064939;28;20068;-69
2021/06/21 13:39:34;;;;;;;6.88;1.50;;;;;;;;;;5063603;28;20139;-63
2021/06/21 13:42:03;;;;;;;2.15;1.20;;;;;;;;;;5061500;28;20053;-63
2021/06/21 13:44:30;;;;;;;2.35;0.82;;;;;;;;;;5065373;28;20072;-64
2021/06/21 13:46:57;;;;;;;2.33;1.02;;;;;;;;;;5070166;28;20082;-64
2021/06/21 13:49:23;;;;;;;4.05;1.27;;;;;;;;;;5068360;28;20072;-65
2021/06/21 13:51:54;;;;;;;3.85;0.90;;;;;;;;;;5063566;28;20080;-65
2021/06/21 13:54:24;;;;;;;1.75;0.90;;;;;;;;;;5065850;28;20135;-66
2021/06/21 13:56:50;;;;;;;2.10;1.00;;;;;;;;;;5070590;28;20080;-64
2021/06/21 13:59:18;;;;;;;3.75;0.90;;;;;;;;;;5070580;28;20195;-64
2021/06/21 14:01:53;;;;;;;3.35;1.08;;;;;;;;;;5072065;28;20079;-64
2021/06/21 14:04:21;;;;;;;1.60;1.00;;;;;;;;;;5071541;28;20484;-65
2021/06/21 14:06:48;;;;;;;2.42;0.95;;;;;;;;;;5072419;28;20091;-63
2021/06/21 14:09:18;;;;;;;3.03;0.98;;;;;;;;;;5069403;28;20041;-64
2021/06/21 14:11:45;;;;;;;3.28;2.08;;;;;;;;;;5089663;22;20106;-68
2021/06/21 14:14:22;;;;;;;1.85;0.88;;;;;;;;;;5062998;28;20048;-68
2021/06/21 14:16:49;;;;;;;2.45;1.27;;;;;;;;;;5058367;28;20094;-67
2021/06/21 14:19:15;;;;;;;1.73;1.10;;;;;;;;;;5062659;28;20076;-69
2021/06/21 14:21:42;;;;;;;2.97;0.90;;;;;;;;;;5059171;28;20076;-71
2021/06/21 14:24:12;;;;;;;2.63;0.95;;;;;;;;;;5061017;28;20083;-68
2021/06/21 14:26:39;;;;;;;2.47;1.13;;;;;;;;;;5059893;28;20474;-68
2021/06/21 14:29:05;;;;;;;1.98;1.30;;;;;;;;;;5062848;28;20561;-68
2021/06/21 14:31:34;;;;;;;1.90;1.00;;;;;;;;;;5059661;28;20131;-68
2021/06/21 14:34:01;;;;;;;1.65;0.60;;;;;;;;;;5059772;28;20093;-68
2021/06/21 14:36:27;;;;;;;2.40;0.70;;;;;;;;;;5062072;28;20525;-68
2021/06/21 14:38:54;;;;;;;1.85;1.27;;;;;;;;;;5065218;28;20072;-68
2021/06/21 14:41:21;;;;;;;1.95;0.90;;;;;;;;;;5059467;28;20076;-68
2021/06/21 14:43:48;;;;;;;3.72;1.00;;;;;;;;;;5068974;28;20049;-68
2021/06/21 14:46:15;;;;;;;1.13;0.75;;;;;;;;;;5047127;28;20144;-68
2021/06/21 14:48:43;;;;;;;2.38;0.90;;;;;;;;;;5062316;28;20044;-68
2021/06/21 14:51:12;;;;;;;3.47;1.20;;;;;;;;;;5064008;28;20072;-68
2021/06/21 14:53:39;;;;;;;1.27;0.90;;;;;;;;;;5064379;28;20055;-68
2021/06/21 14:56:05;;;;;;;3.75;0.98;;;;;;;;;;5063885;28;20084;-68
2021/06/21 14:58:32;;;;;;;1.92;1.00;;;;;;;;;;5061065;28;20041;-68
2021/06/21 15:00:58;;;;;;;2.65;1.00;;;;;;;;;;5063220;28;20045;-68
2021/06/21 15:03:25;;;;;;;3.03;1.55;;;;;;;;;;5063515;28;20431;-68